Time;durP1;ratioP1;P1;durP2;ratioP2;P2;SDS_P1;SDS_P2;PMS_P1;PMS_P2;Temp;Humidity;BMP_temperature;BMP_pressure;BME280_temperature;BME280_humidity;BME280_pressure;Samples;Min_cycle;Max_cycle;Signal;HPM_P1;HPM_P2
2024/01/21 00:00:26;;;;;;;1.90;1.80;;;0.30;99.90;;;;;;5063791;28;20067;-85
2024/01/21 00:02:52;;;;;;;0.80;0.80;;;0.20;99.90;;;;;;5064985;28;20052;-84
2024/01/21 00:05:18;;;;;;;0.80;0.80;;;0.20;99.90;;;;;;5049902;28;20115;-84
2024/01/21 00:07:43;;;;;;;0.73;0.73;;;0.20;99.90;;;;;;5050584;28;20051;-84
2024/01/21 00:10:10;;;;;;;0.65;0.65;;;0.20;99.90;;;;;;5048103;28;20127;-86
2024/01/21 00:12:35;;;;;;;;;;;0.20;99.90;;;;;;5045164;28;20545;-86
2024/01/21 00:15:02;;;;;;;0.70;0.70;;;0.50;99.90;;;;;;5065998;28;20145;-84
2024/01/21 00:17:28;;;;;;;0.75;0.75;;;0.30;99.90;;;;;;5045296;28;20036;-84
2024/01/21 00:19:53;;;;;;;1.70;1.60;;;0.30;99.90;;;;;;5048368;28;20049;-86
2024/01/21 00:22:19;;;;;;;0.85;0.85;;;0.20;99.90;;;;;;5033830;28;20028;-85
2024/01/21 00:24:45;;;;;;;1.33;1.23;;;0.40;99.90;;;;;;5031803;28;20060;-86
2024/01/21 00:27:11;;;;;;;0.80;0.80;;;1.10;99.90;;;;;;5036992;28;20040;-83
2024/01/21 00:29:36;;;;;;;0.70;0.70;;;0.30;99.90;;;;;;5067921;28;20033;-86
2024/01/21 00:32:02;;;;;;;1.08;1.08;;;0.80;99.90;;;;;;5072920;28;20446;-84
2024/01/21 00:34:28;;;;;;;0.75;0.75;;;0.40;99.90;;;;;;5073459;28;20049;-85
2024/01/21 00:36:53;;;;;;;0.80;0.80;;;0.10;99.90;;;;;;5066103;28;20428;-87
2024/01/21 00:39:19;;;;;;;0.70;0.70;;;0.40;99.90;;;;;;5048238;28;20143;-85
2024/01/21 00:41:45;;;;;;;0.73;0.73;;;0.30;99.90;;;;;;5063444;28;20040;-85
2024/01/21 00:44:10;;;;;;;0.70;0.70;;;0.40;99.90;;;;;;5067559;28;20132;-85
2024/01/21 00:46:39;;;;;;;0.80;0.80;;;1.60;99.90;;;;;;5060137;28;20044;-86
2024/01/21 00:49:05;;;;;;;0.80;0.80;;;0.30;99.90;;;;;;5045415;28;20052;-86
2024/01/21 00:51:31;;;;;;;0.70;0.70;;;0.30;99.90;;;;;;5066307;28;20161;-84
2024/01/21 00:53:57;;;;;;;0.80;0.80;;;0.30;99.90;;;;;;5042661;28;20523;-85
2024/01/21 00:56:23;;;;;;;0.80;0.80;;;0.10;99.90;;;;;;5052119;28;20099;-85
2024/01/21 00:58:48;;;;;;;0.88;0.88;;;0.30;99.90;;;;;;5049453;28;20040;-86
2024/01/21 01:01:14;;;;;;;0.80;0.80;;;0.30;99.90;;;;;;5033619;28;20052;-87
2024/01/21 01:03:40;;;;;;;1.58;1.45;;;0.70;99.90;;;;;;5038069;28;20044;-89
2024/01/21 01:06:07;;;;;;;0.75;0.75;;;1.40;99.90;;;;;;5049129;28;20045;-88
2024/01/21 01:08:32;;;;;;;0.75;0.75;;;0.40;99.90;;;;;;5051903;28;20041;-86
2024/01/21 01:10:58;;;;;;;1.30;1.20;;;0.90;99.90;;;;;;5049453;28;20063;-87
2024/01/21 01:13:24;;;;;;;1.27;1.23;;;0.70;99.90;;;;;;5042685;28;20127;-86
2024/01/21 01:15:50;;;;;;;1.50;1.45;;;0.30;99.90;;;;;;5049928;28;20468;-88
2024/01/21 01:18:16;;;;;;;0.90;0.90;;;0.30;99.90;;;;;;5045497;28;20120;-87
2024/01/21 01:20:41;;;;;;;0.70;0.70;;;1.70;99.90;;;;;;5047669;28;20543;-84
2024/01/21 01:23:07;;;;;;;7.68;1.80;;;-1.50;99.90;;;;;;5067326;28;20471;-85
2024/01/21 01:25:33;;;;;;;0.80;0.80;;;0.60;99.90;;;;;;5058411;28;20124;-85
2024/01/21 01:27:59;;;;;;;1.25;1.17;;;1.60;99.90;;;;;;5064493;28;20032;-87
2024/01/21 01:30:25;;;;;;;1.40;1.38;;;0.30;99.90;;;;;;5065885;28;20075;-85
2024/01/21 01:32:50;;;;;;;0.88;0.88;;;1.80;99.90;;;;;;5066095;28;20382;-87
2024/01/21 01:35:16;;;;;;;0.70;0.70;;;0.30;99.90;;;;;;5051574;28;20045;-85
2024/01/21 01:37:42;;;;;;;1.25;1.00;;;0.60;99.90;;;;;;5038375;28;20136;-86
2024/01/21 01:40:08;;;;;;;0.90;0.90;;;1.30;99.90;;;;;;5049989;28;20044;-86
2024/01/21 01:42:33;;;;;;;0.90;0.90;;;0.20;99.90;;;;;;5078485;28;20036;-86
2024/01/21 01:45:00;;;;;;;0.90;0.90;;;0.20;99.90;;;;;;5054068;28;20171;-88
2024/01/21 01:47:26;;;;;;;0.70;0.70;;;0.40;99.90;;;;;;5067429;28;20043;-86
2024/01/21 01:49:54;;;;;;;;;;;0.30;99.90;;;;;;5055688;28;20041;-86
2024/01/21 01:52:19;;;;;;;0.70;0.70;;;0.40;99.90;;;;;;5066266;28;19917;-87
2024/01/21 01:54:46;;;;;;;0.57;0.57;;;0.60;99.90;;;;;;5071046;28;20036;-85
2024/01/21 01:57:15;;;;;;;0.73;0.73;;;0.30;99.90;;;;;;5053207;28;20412;-85
2024/01/21 01:59:41;;;;;;;1.23;1.23;;;0.40;99.90;;;;;;5053158;28;20041;-85
2024/01/21 02:02:07;;;;;;;1.45;1.35;;;0.50;99.90;;;;;;5051760;28;20703;-87
2024/01/21 02:04:33;;;;;;;;;;;0.10;99.90;;;;;;5069297;28;20482;-85
2024/01/21 02:06:59;;;;;;;0.70;0.70;;;0.50;99.90;;;;;;5045391;28;20007;-85
2024/01/21 02:09:25;;;;;;;;;;;0.50;99.90;;;;;;5044098;28;20541;-83
2024/01/21 02:11:51;;;;;;;0.65;0.65;;;1.50;99.90;;;;;;5073999;28;19920;-84
2024/01/21 02:14:16;;;;;;;2.88;2.67;;;1.60;99.90;;;;;;5053028;28;20135;-85
2024/01/21 02:16:42;;;;;;;0.80;0.80;;;0.30;99.90;;;;;;5060432;28;20055;-86
2024/01/21 02:19:26;;;;;;;0.70;0.70;;;1.70;99.90;;;;;;5056589;28;20762;-86
2024/01/21 02:21:52;;;;;;;0.80;0.80;;;0.30;99.90;;;;;;5069558;28;20476;-85
2024/01/21 02:24:18;;;;;;;1.48;1.48;;;0.30;99.90;;;;;;5069747;28;20095;-84
2024/01/21 02:26:44;;;;;;;0.68;0.68;;;0.30;99.90;;;;;;5038217;28;20044;-86
2024/01/21 02:29:10;;;;;;;0.70;0.70;;;0.30;99.90;;;;;;5060503;28;20110;-85
2024/01/21 02:31:35;;;;;;;0.80;0.80;;;0.30;99.90;;;;;;5049403;28;20040;-85
2024/01/21 02:34:01;;;;;;;1.60;1.60;;;0.30;99.90;;;;;;5063303;28;20084;-87
2024/01/21 02:36:27;;;;;;;0.73;0.73;;;0.70;99.90;;;;;;5045870;28;20106;-86
2024/01/21 02:38:52;;;;;;;1.83;1.73;;;1.50;99.90;;;;;;5045142;28;20106;-87
2024/01/21 02:41:18;;;;;;;0.70;0.70;;;0.30;99.90;;;;;;5059658;28;20036;-86
2024/01/21 02:43:44;;;;;;;0.60;0.60;;;0.30;99.90;;;;;;5051109;28;20415;-87
2024/01/21 02:46:10;;;;;;;0.80;0.80;;;0.40;99.90;;;;;;5035472;28;20028;-86
2024/01/21 02:48:35;;;;;;;0.80;0.80;;;0.40;99.90;;;;;;5048921;28;20556;-85
2024/01/21 02:51:01;;;;;;;0.80;0.80;;;2.10;99.90;;;;;;5048430;28;20036;-85
2024/01/21 02:53:27;;;;;;;0.77;0.77;;;0.40;99.90;;;;;;5055517;28;20119;-87
2024/01/21 02:55:52;;;;;;;0.70;0.70;;;0.10;99.90;;;;;;5039610;28;20093;-85
2024/01/21 02:58:18;;;;;;;1.92;1.83;;;0.40;99.90;;;;;;5049433;28;20075;-88
2024/01/21 03:00:44;;;;;;;0.65;0.65;;;0.50;99.90;;;;;;5048335;28;20429;-85
2024/01/21 03:03:10;;;;;;;0.80;0.80;;;0.40;99.90;;;;;;5064906;28;20575;-89
2024/01/21 03:05:42;;;;;;;0.55;0.55;;;0.60;99.90;;;;;;5013304;28;20214;-86
2024/01/21 03:08:09;;;;;;;1.00;1.00;;;0.50;99.90;;;;;;5063106;28;20144;-84
2024/01/21 03:10:35;;;;;;;0.80;0.80;;;0.40;99.90;;;;;;5045893;28;20519;-85
2024/01/21 03:13:01;;;;;;;;;;;0.40;99.90;;;;;;5070328;28;20037;-87
2024/01/21 03:15:26;;;;;;;0.68;0.68;;;0.80;99.90;;;;;;5050891;28;20022;-86
2024/01/21 03:17:52;;;;;;;0.70;0.70;;;0.60;99.90;;;;;;5045147;28;20044;-86
2024/01/21 03:20:18;;;;;;;0.80;0.80;;;1.40;99.90;;;;;;5037308;28;20428;-87
2024/01/21 03:22:44;;;;;;;1.40;1.38;;;1.50;99.90;;;;;;5063513;28;20037;-87
2024/01/21 03:25:09;;;;;;;1.55;1.45;;;0.60;99.90;;;;;;5052039;28;20072;-85
2024/01/21 03:27:41;;;;;;;0.80;0.80;;;0.60;99.90;;;;;;5063924;28;20052;-86
2024/01/21 03:30:07;;;;;;;1.17;1.17;;;0.60;99.90;;;;;;5058098;28;20044;-88
2024/01/21 03:32:33;;;;;;;0.63;0.63;;;0.50;99.90;;;;;;5049746;28;20039;-86
2024/01/21 03:34:59;;;;;;;0.70;0.70;;;0.50;99.90;;;;;;5033987;28;20036;-85
2024/01/21 03:37:25;;;;;;;0.90;0.90;;;0.50;99.90;;;;;;5059695;28;20474;-86
2024/01/21 03:39:50;;;;;;;1.25;1.25;;;0.60;99.90;;;;;;5065333;28;20048;-86
2024/01/21 03:42:16;;;;;;;0.70;0.70;;;0.20;99.90;;;;;;5034869;28;20036;-86
2024/01/21 03:44:42;;;;;;;0.70;0.70;;;0.40;99.90;;;;;;5042412;28;20478;-87
2024/01/21 03:47:07;;;;;;;0.68;0.68;;;0.40;99.90;;;;;;5073808;28;20068;-86
2024/01/21 03:49:33;;;;;;;0.70;0.70;;;0.30;99.90;;;;;;5072074;28;20106;-87
2024/01/21 03:51:59;;;;;;;0.77;0.77;;;0.00;99.90;;;;;;5036491;28;20060;-86
2024/01/21 03:54:25;;;;;;;1.13;1.13;;;0.30;99.90;;;;;;5059126;28;20044;-87
2024/01/21 03:56:50;;;;;;;1.45;1.45;;;0.60;99.90;;;;;;5053834;28;20049;-84
2024/01/21 03:59:16;;;;;;;0.80;0.80;;;0.20;99.90;;;;;;5049218;28;20037;-85
2024/01/21 04:01:45;;;;;;;0.80;0.80;;;0.30;99.90;;;;;;5024066;28;20060;-86
2024/01/21 04:04:11;;;;;;;0.80;0.80;;;0.30;99.90;;;;;;5045950;28;20052;-84
2024/01/21 04:06:41;;;;;;;0.80;0.80;;;1.60;99.90;;;;;;5035261;28;20032;-85
2024/01/21 04:09:15;;;;;;;0.65;0.65;;;1.30;99.90;;;;;;5049427;28;20075;-86
2024/01/21 04:11:44;;;;;;;0.80;0.80;;;0.30;99.90;;;;;;5044235;28;20128;-86
2024/01/21 04:14:09;;;;;;;0.68;0.68;;;0.20;99.90;;;;;;5052944;28;20033;-86
2024/01/21 04:16:35;;;;;;;0.88;0.88;;;0.20;99.90;;;;;;5046778;28;20090;-86
2024/01/21 04:19:02;;;;;;;0.85;0.85;;;-0.20;99.90;;;;;;5051238;28;20048;-87
2024/01/21 04:21:28;;;;;;;1.00;1.00;;;0.30;99.90;;;;;;5038695;28;20065;-85
2024/01/21 04:23:53;;;;;;;0.70;0.70;;;0.20;99.90;;;;;;5050794;28;20067;-85
2024/01/21 04:26:20;;;;;;;0.70;0.70;;;0.30;99.90;;;;;;5047274;28;20028;-86
2024/01/21 04:28:45;;;;;;;0.70;0.70;;;1.40;99.90;;;;;;5043337;28;20056;-87
2024/01/21 04:31:12;;;;;;;0.70;0.70;;;0.60;99.90;;;;;;5041681;28;20100;-85
2024/01/21 04:33:37;;;;;;;0.60;0.60;;;0.60;99.90;;;;;;5052093;28;20114;-85
2024/01/21 04:36:03;;;;;;;0.63;0.63;;;0.50;99.90;;;;;;5065391;28;20049;-85
2024/01/21 04:38:29;;;;;;;;;;;0.50;99.90;;;;;;5050552;28;20426;-85
2024/01/21 04:40:55;;;;;;;0.70;0.70;;;0.50;99.90;;;;;;5063126;28;19974;-84
2024/01/21 04:43:21;;;;;;;0.80;0.80;;;0.80;99.90;;;;;;5016167;28;20045;-85
2024/01/21 04:45:46;;;;;;;0.73;0.73;;;0.60;99.90;;;;;;5036290;28;20427;-85
2024/01/21 04:48:12;;;;;;;1.27;1.23;;;0.70;99.90;;;;;;5039618;28;20084;-86
2024/01/21 04:50:38;;;;;;;0.77;0.77;;;0.70;99.90;;;;;;5030370;28;20041;-86
2024/01/21 04:53:04;;;;;;;0.77;0.77;;;1.60;99.90;;;;;;5057940;28;20040;-85
2024/01/21 04:55:29;;;;;;;0.70;0.70;;;1.80;99.90;;;;;;5019161;28;20063;-85
2024/01/21 04:57:55;;;;;;;0.70;0.70;;;2.20;99.90;;;;;;5053402;28;20155;-85
2024/01/21 05:00:22;;;;;;;0.70;0.70;;;2.30;99.90;;;;;;5035213;28;20069;-84
2024/01/21 05:02:48;;;;;;;0.70;0.70;;;1.60;99.90;;;;;;5036908;28;20049;-86
2024/01/21 05:05:14;;;;;;;;;;;0.90;99.90;;;;;;5016261;28;20068;-84
2024/01/21 05:07:40;;;;;;;0.70;0.70;;;0.90;99.90;;;;;;5063612;28;19916;-84
2024/01/21 05:10:06;;;;;;;0.60;0.60;;;0.90;99.90;;;;;;5020956;28;20036;-85
2024/01/21 05:12:37;;;;;;;3.92;3.63;;;0.90;99.90;;;;;;5033088;28;20047;-87
2024/01/21 05:15:04;;;;;;;0.60;0.60;;;0.90;99.90;;;;;;5021828;28;20044;-86
2024/01/21 05:17:30;;;;;;;;;;;0.90;99.90;;;;;;5042906;28;20056;-85
2024/01/21 05:19:55;;;;;;;0.60;0.60;;;0.70;99.90;;;;;;5043922;28;19921;-83
2024/01/21 05:22:21;;;;;;;0.60;0.60;;;1.60;99.90;;;;;;5048068;28;20033;-85
2024/01/21 05:24:50;;;;;;;0.70;0.70;;;1.70;99.90;;;;;;5063117;28;20803;-85
2024/01/21 05:27:16;;;;;;;1.88;1.77;;;1.40;99.90;;;;;;5033133;28;20127;-83
2024/01/21 05:29:42;;;;;;;0.70;0.70;;;1.50;99.90;;;;;;5044321;28;20078;-82
2024/01/21 05:32:08;;;;;;;0.77;0.77;;;1.20;99.90;;;;;;5025077;28;20075;-83
2024/01/21 05:34:34;;;;;;;0.85;0.85;;;1.30;99.90;;;;;;5069809;28;20068;-84
2024/01/21 05:37:00;;;;;;;0.88;0.88;;;1.20;99.90;;;;;;5031729;28;20059;-83
2024/01/21 05:39:25;;;;;;;0.70;0.70;;;1.10;99.90;;;;;;5061696;28;20466;-85
2024/01/21 05:42:02;;;;;;;0.80;0.80;;;1.30;99.90;;;;;;5031857;28;20048;-84
2024/01/21 05:44:28;;;;;;;0.60;0.60;;;2.40;99.90;;;;;;5026785;28;20041;-84
2024/01/21 05:46:54;;;;;;;1.23;1.23;;;1.30;99.90;;;;;;5064242;28;20114;-83
2024/01/21 05:49:19;;;;;;;1.35;1.25;;;1.20;99.90;;;;;;5062767;28;20788;-84
2024/01/21 05:51:46;;;;;;;0.70;0.70;;;1.50;99.90;;;;;;5028415;28;20056;-84
2024/01/21 05:54:12;;;;;;;0.90;0.90;;;1.40;99.90;;;;;;5035890;28;20051;-84
2024/01/21 05:56:38;;;;;;;0.70;0.70;;;1.30;99.90;;;;;;5047080;28;20045;-84
2024/01/21 05:59:03;;;;;;;0.70;0.70;;;1.30;99.90;;;;;;5041845;28;20047;-84
2024/01/21 06:01:29;;;;;;;0.73;0.73;;;2.70;99.90;;;;;;5059801;28;20049;-83
2024/01/21 06:03:55;;;;;;;0.68;0.68;;;1.40;99.90;;;;;;5046205;28;20036;-84
2024/01/21 06:06:21;;;;;;;0.70;0.70;;;;;;;;;;5064713;28;20048;-84
2024/01/21 06:08:47;;;;;;;;;;;1.50;99.90;;;;;;5044808;28;20428;-85
2024/01/21 06:11:12;;;;;;;0.60;0.60;;;1.50;99.90;;;;;;5046923;28;19920;-85
2024/01/21 06:13:38;;;;;;;1.45;1.23;;;1.50;99.90;;;;;;5034993;28;20095;-83
2024/01/21 06:16:04;;;;;;;0.70;0.70;;;1.50;99.90;;;;;;5042627;28;20090;-85
2024/01/21 06:18:30;;;;;;;0.68;0.68;;;1.30;99.90;;;;;;5049089;28;20354;-83
2024/01/21 06:20:56;;;;;;;0.60;0.60;;;1.50;99.90;;;;;;5024567;28;20044;-85
2024/01/21 06:23:22;;;;;;;0.80;0.80;;;1.20;99.90;;;;;;5047386;28;20045;-85
2024/01/21 06:25:48;;;;;;;2.50;2.30;;;1.50;99.90;;;;;;5044466;28;20032;-83
2024/01/21 06:28:13;;;;;;;1.88;1.77;;;1.50;99.90;;;;;;5065434;28;20052;-84
2024/01/21 06:30:39;;;;;;;0.65;0.65;;;1.40;99.90;;;;;;5040516;28;20037;-84
2024/01/21 06:33:05;;;;;;;1.02;1.02;;;;;;;;;;5041392;28;20079;-84
2024/01/21 06:35:32;;;;;;;0.70;0.70;;;;;;;;;;5063360;28;20040;-85
2024/01/21 06:37:58;;;;;;;0.70;0.70;;;;;;;;;;5038914;28;20056;-84
2024/01/21 06:40:24;;;;;;;0.73;0.73;;;;;;;;;;5052184;28;20037;-85
2024/01/21 06:42:50;;;;;;;0.73;0.73;;;;;;;;;;5062658;28;20056;-84
2024/01/21 06:45:16;;;;;;;;;;;;;;;;;;5048717;28;20036;-83
2024/01/21 06:47:42;;;;;;;0.70;0.70;;;1.50;99.90;;;;;;5060462;28;19927;-83
2024/01/21 06:50:11;;;;;;;5.85;2.47;;;1.40;99.90;;;;;;5070179;28;20491;-84
2024/01/21 06:52:37;;;;;;;0.70;0.70;;;;;;;;;;5035912;28;20067;-84
2024/01/21 06:55:03;;;;;;;0.70;0.70;;;;;;;;;;5050042;28;20040;-84
2024/01/21 06:57:30;;;;;;;0.70;0.70;;;;;;;;;;5066076;28;20037;-84
2024/01/21 06:59:56;;;;;;;;;;;;;;;;;;5068702;28;20049;-86
2024/01/21 07:02:22;;;;;;;0.60;0.60;;;;;;;;;;5067935;28;19940;-83
2024/01/21 07:04:48;;;;;;;0.70;0.70;;;;;;;;;;5031638;28;20064;-84
2024/01/21 07:07:14;;;;;;;0.70;0.70;;;;;;;;;;5052333;28;20047;-84
2024/01/21 07:09:41;;;;;;;;;;;;;;;;;;5062659;28;20049;-81
2024/01/21 07:12:08;;;;;;;0.70;0.70;;;;;;;;;;5041192;28;19926;-83
2024/01/21 07:14:34;;;;;;;0.65;0.65;;;;;;;;;;5064269;28;20044;-84
2024/01/21 07:17:03;;;;;;;0.70;0.70;;;;;;;;;;5065245;28;20040;-82
2024/01/21 07:19:29;;;;;;;;;;;;;;;;;;5061949;28;20032;-83
2024/01/21 07:21:55;;;;;;;3.45;3.28;;;;;;;;;;5064770;28;19927;-82
2024/01/21 07:24:22;;;;;;;0.70;0.70;;;;;;;;;;5045733;28;20442;-83
2024/01/21 07:26:47;;;;;;;;;;;;;;;;;;5047291;28;20028;-84
2024/01/21 07:29:14;;;;;;;0.70;0.70;;;;;;;;;;5062910;28;19985;-84
2024/01/21 07:31:40;;;;;;;0.60;0.60;;;;;;;;;;5041084;28;20063;-84
2024/01/21 07:34:09;;;;;;;0.70;0.70;;;;;;;;;;5049832;28;20045;-85
2024/01/21 07:36:35;;;;;;;0.60;0.60;;;;;;;;;;5067218;28;20105;-84
2024/01/21 07:39:04;;;;;;;0.63;0.63;;;;;;;;;;5060189;28;20497;-83
2024/01/21 07:41:30;;;;;;;0.80;0.80;;;;;;;;;;5046735;28;20040;-85
2024/01/21 07:43:57;;;;;;;0.70;0.70;;;;;;;;;;5069146;28;20146;-84
2024/01/21 07:46:23;;;;;;;0.80;0.80;;;;;;;;;;5049661;28;20033;-84
2024/01/21 07:48:49;;;;;;;;;;;;;;;;;;5068796;28;20044;-84
2024/01/21 07:51:18;;;;;;;3.45;1.50;;;;;;;;;;5049718;28;19939;-85
2024/01/21 07:53:44;;;;;;;0.70;0.70;;;;;;;;;;5064961;28;20048;-82
2024/01/21 07:56:10;;;;;;;0.68;0.68;;;;;;;;;;5063993;28;20133;-83
2024/01/21 07:58:36;;;;;;;;;;;;;;;;;;5050952;28;20044;-85
2024/01/21 08:01:05;;;;;;;0.60;0.60;;;;;;;;;;5086600;28;19928;-84
2024/01/21 08:03:32;;;;;;;0.70;0.70;;;;;;;;;;5065023;28;20438;-84
2024/01/21 08:05:58;;;;;;;1.02;1.02;;;;;;;;;;5046882;28;20041;-84
2024/01/21 08:08:24;;;;;;;0.70;0.70;;;;;;;;;;5068711;28;20040;-85
2024/01/21 08:10:51;;;;;;;0.80;0.80;;;;;;;;;;5045254;28;20548;-85
2024/01/21 08:13:17;;;;;;;0.60;0.60;;;;;;;;;;5034430;28;20040;-83
2024/01/21 08:15:43;;;;;;;0.73;0.73;;;;;;;;;;5066495;28;20101;-83
2024/01/21 08:18:09;;;;;;;;;;;;;;;;;;5068269;28;20097;-82
2024/01/21 08:20:35;;;;;;;0.68;0.68;;;;;;;;;;5086009;28;19920;-83
2024/01/21 08:23:01;;;;;;;0.75;0.75;;;;;;;;;;5046907;28;20040;-83
2024/01/21 08:25:28;;;;;;;;;;;;;;;;;;5062809;28;20060;-84
2024/01/21 08:27:54;;;;;;;0.70;0.70;;;;;;;;;;5066621;28;19920;-83
2024/01/21 08:30:20;;;;;;;0.68;0.68;;;;;;;;;;5046881;28;20044;-85
2024/01/21 08:32:46;;;;;;;;;;;;;;;;;;5044407;28;20079;-82
2024/01/21 08:35:13;;;;;;;0.60;0.60;;;;;;;;;;5050060;28;19920;-85
2024/01/21 08:37:39;;;;;;;0.70;0.70;;;;;;;;;;5049725;28;20047;-84
2024/01/21 08:40:06;;;;;;;;;;;;;;;;;;5047570;28;20124;-84
2024/01/21 08:42:32;;;;;;;0.60;0.60;;;;;;;;;;5062979;28;19939;-84
2024/01/21 08:44:58;;;;;;;0.70;0.70;;;;;;;;;;5048680;28;20044;-85
2024/01/21 08:47:25;;;;;;;0.95;0.95;;;;;;;;;;5066267;28;20040;-84
2024/01/21 08:49:51;;;;;;;0.60;0.60;;;;;;;;;;5050450;28;20116;-84
2024/01/21 08:52:17;;;;;;;0.70;0.70;;;;;;;;;;5039861;28;20044;-83
2024/01/21 08:54:43;;;;;;;;;;;;;;;;;;5076865;28;20116;-82
2024/01/21 08:57:09;;;;;;;0.60;0.60;;;;;;;;;;5062615;28;19966;-83
2024/01/21 08:59:35;;;;;;;;;;;;;;;;;;5051274;28;20040;-83
2024/01/21 09:02:01;;;;;;;0.77;0.77;;;;;;;;;;5064873;28;20391;-84
2024/01/21 09:04:27;;;;;;;;;;;;;;;;;;5033293;28;20414;-83
2024/01/21 09:06:53;;;;;;;0.65;0.65;;;;;;;;;;5058196;28;19920;-82
2024/01/21 09:09:19;;;;;;;;;;;;;;;;;;5065098;28;20130;-83
2024/01/21 09:11:47;;;;;;;0.95;0.93;;;;;;;;;;5061076;28;19963;-82
2024/01/21 09:14:13;;;;;;;1.38;1.38;;;;;;;;;;5022297;28;20210;-81
2024/01/21 09:16:39;;;;;;;1.38;1.38;;;;;;;;;;5058312;28;20178;-81
2024/01/21 09:19:05;;;;;;;;;;;;;;;;;;5052544;28;20769;-82
2024/01/21 09:21:33;;;;;;;0.70;0.70;;;;;;;;;;5052902;28;20013;-82
2024/01/21 09:24:03;;;;;;;0.75;0.75;;;;;;;;;;5045583;28;20049;-82
2024/01/21 09:26:29;;;;;;;0.60;0.60;;;;;;;;;;5047209;28;20037;-80
2024/01/21 09:28:55;;;;;;;0.70;0.70;;;;;;;;;;5035339;28;20080;-80
2024/01/21 09:31:22;;;;;;;0.70;0.70;;;;;;;;;;5048891;28;20037;-80
2024/01/21 09:33:48;;;;;;;0.70;0.70;;;;;;;;;;5064229;28;20032;-80
2024/01/21 09:36:15;;;;;;;2.67;1.35;;;;;;;;;;5047979;28;20036;-83
2024/01/21 09:38:41;;;;;;;0.60;0.60;;;;;;;;;;5064160;28;20561;-81
2024/01/21 09:41:20;;;;;;;0.70;0.70;;;;;;;;;;5063993;28;20390;-81
2024/01/21 09:43:46;;;;;;;0.68;0.68;;;;;;;;;;5040107;28;20124;-80
2024/01/21 09:46:12;;;;;;;0.70;0.70;;;;;;;;;;5065689;28;20400;-81
2024/01/21 09:48:39;;;;;;;0.70;0.70;;;;;;;;;;5049912;28;20543;-82
2024/01/21 09:51:08;;;;;;;0.80;0.80;;;;;;;;;;5031291;28;20076;-80
2024/01/21 09:53:35;;;;;;;0.68;0.68;;;;;;;;;;5043653;28;20541;-81
2024/01/21 09:56:08;;;;;;;0.90;0.90;;;;;;;;;;5060604;28;20482;-82
2024/01/21 09:58:37;;;;;;;0.70;0.70;;;;;;;;;;5064839;28;20178;-82
2024/01/21 10:01:04;;;;;;;0.70;0.70;;;;;;;;;;5066854;28;20052;-79
2024/01/21 10:03:30;;;;;;;0.75;0.75;;;;;;;;;;5058219;28;20084;-82
2024/01/21 10:05:55;;;;;;;;;;;2.90;99.90;;;;;;5046513;28;20040;-82
2024/01/21 10:08:21;;;;;;;0.68;0.68;;;3.90;99.90;;;;;;5046040;28;19947;-80
2024/01/21 10:10:47;;;;;;;0.60;0.60;;;3.30;99.90;;;;;;5065094;28;20433;-82
2024/01/21 10:13:13;;;;;;;0.80;0.80;;;3.00;99.90;;;;;;5018324;28;20490;-81
2024/01/21 10:15:39;;;;;;;1.08;1.08;;;2.80;99.90;;;;;;5035311;28;20161;-81
2024/01/21 10:18:05;;;;;;;0.65;0.65;;;3.90;99.90;;;;;;5044639;28;20083;-81
2024/01/21 10:20:31;;;;;;;1.20;1.20;;;3.10;99.90;;;;;;5050823;28;20098;-80
2024/01/21 10:23:10;;;;;;;0.90;0.90;;;4.10;99.90;;;;;;5032517;28;20048;-82
2024/01/21 10:25:43;;;;;;;0.60;0.60;;;3.30;99.90;;;;;;5058274;28;20048;-82
2024/01/21 10:28:11;;;;;;;0.63;0.63;;;3.30;99.90;;;;;;5030660;28;20155;-80
2024/01/21 10:30:38;;;;;;;0.75;0.75;;;3.00;99.90;;;;;;5065945;28;20059;-81
2024/01/21 10:33:05;;;;;;;0.60;0.60;;;3.50;99.90;;;;;;5050442;28;20054;-81
2024/01/21 10:35:31;;;;;;;0.60;0.60;;;3.50;99.90;;;;;;5072412;28;20050;-81
2024/01/21 10:37:57;;;;;;;0.70;0.70;;;4.00;99.90;;;;;;5069194;28;20040;-82
2024/01/21 10:40:24;;;;;;;0.55;0.55;;;4.20;99.90;;;;;;5065924;28;20082;-81
2024/01/21 10:42:55;;;;;;;0.60;0.60;;;3.80;99.90;;;;;;5062995;28;20048;-80
2024/01/21 10:45:27;;;;;;;;;;;3.90;99.90;;;;;;5046667;28;20497;-79
2024/01/21 10:47:54;;;;;;;0.75;0.75;;;3.90;99.90;;;;;;5050199;28;20003;-82
2024/01/21 10:50:23;;;;;;;0.70;0.70;;;3.50;99.90;;;;;;5031664;28;20108;-80
2024/01/21 10:53:07;;;;;;;2.28;1.85;;;4.00;99.90;;;;;;5060173;28;20405;-81
2024/01/21 10:55:36;;;;;;;1.98;1.88;;;3.40;99.90;;;;;;5044729;28;20041;-81
2024/01/21 10:58:02;;;;;;;1.15;1.15;;;3.90;99.90;;;;;;5048454;28;20052;-82
2024/01/21 11:00:28;;;;;;;0.63;0.63;;;3.30;99.90;;;;;;5047059;28;20041;-81
2024/01/21 11:03:30;;;;;;;0.90;0.90;;;3.90;99.90;;;;;;5055936;28;20059;-80
2024/01/21 11:06:01;;;;;;;0.70;0.70;;;3.40;99.90;;;;;;5065580;28;20044;-82
2024/01/21 11:08:28;;;;;;;0.65;0.65;;;3.70;99.90;;;;;;5068344;28;20056;-82
2024/01/21 11:11:04;;;;;;;0.63;0.63;;;3.60;99.90;;;;;;5046753;28;20124;-81
2024/01/21 11:13:45;;;;;;;0.85;0.85;;;3.70;99.90;;;;;;5048902;28;20044;-82
2024/01/21 11:16:25;;;;;;;2.47;1.38;;;3.60;99.90;;;;;;5065942;28;20036;-81
2024/01/21 11:19:12;;;;;;;0.80;0.80;;;3.60;99.90;;;;;;5061011;28;20045;-83
2024/01/21 11:21:42;;;;;;;0.77;0.77;;;3.60;99.90;;;;;;5064806;28;20048;-80
2024/01/21 11:24:15;;;;;;;0.60;0.60;;;3.60;99.90;;;;;;5067792;28;20053;-81
2024/01/21 11:26:43;;;;;;;1.00;1.00;;;3.70;99.90;;;;;;5064092;28;20474;-82
2024/01/21 11:29:28;;;;;;;0.60;0.60;;;3.70;99.90;;;;;;5046451;28;20045;-81
2024/01/21 11:32:02;;;;;;;0.70;0.70;;;3.70;99.90;;;;;;5049111;28;20059;-80
2024/01/21 11:34:39;;;;;;;0.60;0.60;;;3.70;99.90;;;;;;5063431;28;20044;-81
2024/01/21 11:37:12;;;;;;;4.00;3.70;;;3.80;99.90;;;;;;5029305;28;20032;-83
2024/01/21 11:39:38;;;;;;;0.93;0.93;;;4.30;99.90;;;;;;5049682;28;20056;-82
2024/01/21 11:42:05;;;;;;;;;;;3.90;99.90;;;;;;5061508;28;20041;-82
2024/01/21 11:44:32;;;;;;;11.50;1.20;;;3.90;99.90;;;;;;5050209;28;20952;-82
2024/01/21 11:47:01;;;;;;;0.60;0.60;;;4.00;99.90;;;;;;5051366;28;20048;-80
2024/01/21 11:49:31;;;;;;;0.88;0.88;;;4.40;99.90;;;;;;5064264;28;20040;-82
2024/01/21 11:51:59;;;;;;;1.35;1.35;;;3.90;99.90;;;;;;5047143;28;20059;-81
2024/01/21 11:54:26;;;;;;;1.05;1.00;;;3.90;99.90;;;;;;5061675;28;20041;-83
2024/01/21 11:56:52;;;;;;;0.90;0.90;;;3.80;99.90;;;;;;5059125;28;20083;-81
2024/01/21 11:59:19;;;;;;;0.80;0.80;;;3.80;99.90;;;;;;5061520;28;20041;-81
2024/01/21 12:01:47;;;;;;;0.60;0.60;;;3.80;99.90;;;;;;5058829;28;20068;-83
2024/01/21 12:04:14;;;;;;;2.33;1.38;;;3.70;99.90;;;;;;5059821;28;20080;-83
2024/01/21 12:06:49;;;;;;;1.10;0.82;;;3.60;99.90;;;;;;5063076;28;20041;-81
2024/01/21 12:09:15;;;;;;;0.80;0.80;;;3.70;99.90;;;;;;5037941;28;20038;-82
2024/01/21 12:11:42;;;;;;;1.10;1.10;;;3.80;99.90;;;;;;5028764;28;20052;-81
2024/01/21 12:14:14;;;;;;;0.70;0.70;;;3.70;99.90;;;;;;5054938;28;20071;-82
2024/01/21 12:16:41;;;;;;;0.70;0.70;;;3.80;99.90;;;;;;5046010;28;20072;-81
2024/01/21 12:19:08;;;;;;;0.70;0.70;;;3.80;99.90;;;;;;5047456;28;20184;-82
2024/01/21 12:21:34;;;;;;;0.80;0.80;;;3.70;99.90;;;;;;5064488;28;20045;-82
2024/01/21 12:24:02;;;;;;;2.83;0.93;;;3.70;99.90;;;;;;5044104;28;20041;-82
2024/01/21 12:26:28;;;;;;;2.65;2.45;;;4.40;99.90;;;;;;5058459;28;20044;-82
2024/01/21 12:29:01;;;;;;;;;;;4.50;99.90;;;;;;5057089;28;20446;-82
2024/01/21 12:31:27;;;;;;;0.80;0.80;;;3.70;99.90;;;;;;5056053;28;20209;-82
2024/01/21 12:33:54;;;;;;;0.60;0.60;;;3.80;99.90;;;;;;5035730;28;20045;-80
2024/01/21 12:36:20;;;;;;;2.15;1.67;;;3.80;99.90;;;;;;5035242;28;20040;-81
2024/01/21 12:38:46;;;;;;;0.60;0.60;;;3.80;99.90;;;;;;5052018;28;20394;-81
2024/01/21 12:41:12;;;;;;;0.80;0.80;;;3.70;99.90;;;;;;5037573;28;20047;-80
2024/01/21 12:43:38;;;;;;;4.65;1.77;;;3.70;99.90;;;;;;5056359;28;20040;-80
2024/01/21 12:46:04;;;;;;;0.93;0.93;;;3.70;99.90;;;;;;5019933;28;20076;-81
2024/01/21 12:48:30;;;;;;;0.85;0.85;;;3.70;99.90;;;;;;5053289;28;20041;-81
2024/01/21 12:50:56;;;;;;;0.55;0.55;;;3.70;99.90;;;;;;5055486;28;20415;-82
2024/01/21 12:53:22;;;;;;;1.00;1.00;;;4.50;99.90;;;;;;5058244;28;20052;-82
2024/01/21 12:55:47;;;;;;;0.60;0.60;;;3.70;99.90;;;;;;5024564;28;20342;-82
2024/01/21 12:58:13;;;;;;;0.98;0.98;;;3.70;99.90;;;;;;5042232;28;20409;-81
2024/01/21 13:00:41;;;;;;;0.80;0.80;;;3.70;99.90;;;;;;5055767;28;20044;-80
2024/01/21 13:03:08;;;;;;;0.68;0.68;;;3.70;99.90;;;;;;5062061;28;20517;-83
2024/01/21 13:05:34;;;;;;;0.95;0.95;;;3.70;99.90;;;;;;5043481;28;20044;-82
2024/01/21 13:08:00;;;;;;;4.95;3.05;;;3.80;99.90;;;;;;5066688;28;20175;-81
2024/01/21 13:10:26;;;;;;;;;;;3.80;99.90;;;;;;5046560;28;20052;-81
2024/01/21 13:12:52;;;;;;;2.15;1.27;;;3.90;99.90;;;;;;5044238;28;20658;-81
2024/01/21 13:15:18;;;;;;;1.50;1.02;;;3.80;99.90;;;;;;5021895;28;20045;-82
2024/01/21 13:17:43;;;;;;;2.80;2.25;;;3.80;99.90;;;;;;5054400;28;20044;-82
2024/01/21 13:20:10;;;;;;;;;;;3.80;99.90;;;;;;5028942;28;20051;-81
2024/01/21 13:22:35;;;;;;;1.10;1.10;;;3.80;99.90;;;;;;5023780;28;19916;-85
2024/01/21 15:16:16;;;;;;;0.70;0.70;;;4.50;99.90;;;;;;5039156;28;20053;-87
2024/01/21 15:18:47;;;;;;;0.60;0.60;;;4.50;99.90;;;;;;5008254;28;20049;-91